sensor_id;sensor_type;location;lat;lon;timestamp;P1;durP1;ratioP1;P2;durP2;ratioP2
51066;SDS011;37112;45.892;-123.962;2023-08-31T00:00:51;14.30;;;5.30;;
51066;SDS011;37112;45.892;-123.962;2023-08-31T00:03:07;18.40;;;3.90;;
51066;SDS011;37112;45.892;-123.962;2023-08-31T00:05:22;8.20;;;3.40;;
51066;SDS011;37112;45.892;-123.962;2023-08-31T00:07:36;9.10;;;3.10;;
51066;SDS011;37112;45.892;-123.962;2023-08-31T00:09:49;7.40;;;2.30;;
51066;SDS011;37112;45.892;-123.962;2023-08-31T00:12:02;8.20;;;2.70;;
51066;SDS011;37112;45.892;-123.962;2023-08-31T00:14:18;8.50;;;2.30;;
51066;SDS011;37112;45.892;-123.962;2023-08-31T00:16:31;6.40;;;2.20;;
51066;SDS011;37112;45.892;-123.962;2023-08-31T00:18:44;10.00;;;3.10;;
51066;SDS011;37112;45.892;-123.962;2023-08-31T00:20:57;10.00;;;2.60;;
51066;SDS011;37112;45.892;-123.962;2023-08-31T00:23:11;11.30;;;3.20;;
51066;SDS011;37112;45.892;-123.962;2023-08-31T00:25:23;7.10;;;2.00;;
51066;SDS011;37112;45.892;-123.962;2023-08-31T00:27:36;15.10;;;3.40;;
51066;SDS011;37112;45.892;-123.962;2023-08-31T00:29:50;7.40;;;3.00;;
51066;SDS011;37112;45.892;-123.962;2023-08-31T00:32:03;5.30;;;2.20;;
51066;SDS011;37112;45.892;-123.962;2023-08-31T00:34:16;11.80;;;2.20;;
51066;SDS011;37112;45.892;-123.962;2023-08-31T00:36:29;8.60;;;2.70;;
51066;SDS011;37112;45.892;-123.962;2023-08-31T00:38:42;13.30;;;3.00;;
51066;SDS011;37112;45.892;-123.962;2023-08-31T00:40:55;12.30;;;2.90;;
51066;SDS011;37112;45.892;-123.962;2023-08-31T00:43:08;11.80;;;3.40;;
51066;SDS011;37112;45.892;-123.962;2023-08-31T00:45:22;8.50;;;2.60;;
51066;SDS011;37112;45.892;-123.962;2023-08-31T00:47:36;7.40;;;2.40;;
51066;SDS011;37112;45.892;-123.962;2023-08-31T00:49:49;10.40;;;2.40;;
51066;SDS011;37112;45.892;-123.962;2023-08-31T00:52:02;5.30;;;1.90;;
51066;SDS011;37112;45.892;-123.962;2023-08-31T00:54:18;11.10;;;3.40;;
51066;SDS011;37112;45.892;-123.962;2023-08-31T00:56:31;7.30;;;2.50;;
51066;SDS011;37112;45.892;-123.962;2023-08-31T00:58:52;7.40;;;2.60;;
51066;SDS011;37112;45.892;-123.962;2023-08-31T01:01:06;6.70;;;2.30;;
51066;SDS011;37112;45.892;-123.962;2023-08-31T01:03:31;10.30;;;2.90;;
51066;SDS011;37112;45.892;-123.962;2023-08-31T01:05:54;11.30;;;2.90;;
51066;SDS011;37112;45.892;-123.962;2023-08-31T01:08:14;6.00;;;2.80;;
51066;SDS011;37112;45.892;-123.962;2023-08-31T01:10:37;11.30;;;3.40;;
51066;SDS011;37112;45.892;-123.962;2023-08-31T01:13:02;20.60;;;5.20;;
51066;SDS011;37112;45.892;-123.962;2023-08-31T01:15:21;19.80;;;5.30;;
51066;SDS011;37112;45.892;-123.962;2023-08-31T01:17:39;15.90;;;4.50;;
51066;SDS011;37112;45.892;-123.962;2023-08-31T01:19:57;13.10;;;4.30;;
51066;SDS011;37112;45.892;-123.962;2023-08-31T01:22:12;20.10;;;5.00;;
51066;SDS011;37112;45.892;-123.962;2023-08-31T01:24:30;14.40;;;4.40;;
51066;SDS011;37112;45.892;-123.962;2023-08-31T01:26:44;18.80;;;4.50;;
51066;SDS011;37112;45.892;-123.962;2023-08-31T01:28:57;17.30;;;3.50;;
51066;SDS011;37112;45.892;-123.962;2023-08-31T01:31:12;20.60;;;5.00;;
51066;SDS011;37112;45.892;-123.962;2023-08-31T01:33:25;24.20;;;4.60;;
51066;SDS011;37112;45.892;-123.962;2023-08-31T01:35:39;22.50;;;5.40;;
51066;SDS011;37112;45.892;-123.962;2023-08-31T01:37:56;19.40;;;4.00;;
51066;SDS011;37112;45.892;-123.962;2023-08-31T01:40:15;15.50;;;3.10;;
51066;SDS011;37112;45.892;-123.962;2023-08-31T01:42:32;15.10;;;5.40;;
51066;SDS011;37112;45.892;-123.962;2023-08-31T01:44:47;16.80;;;5.40;;
51066;SDS011;37112;45.892;-123.962;2023-08-31T01:47:04;18.00;;;5.60;;
51066;SDS011;37112;45.892;-123.962;2023-08-31T01:49:18;19.80;;;7.40;;
51066;SDS011;37112;45.892;-123.962;2023-08-31T01:51:31;15.90;;;4.70;;
51066;SDS011;37112;45.892;-123.962;2023-08-31T01:53:45;25.00;;;8.00;;
51066;SDS011;37112;45.892;-123.962;2023-08-31T01:55:58;46.50;;;10.60;;
51066;SDS011;37112;45.892;-123.962;2023-08-31T01:58:12;39.90;;;8.70;;
51066;SDS011;37112;45.892;-123.962;2023-08-31T02:00:26;35.40;;;10.30;;
51066;SDS011;37112;45.892;-123.962;2023-08-31T02:02:42;36.00;;;11.10;;
51066;SDS011;37112;45.892;-123.962;2023-08-31T02:04:55;21.60;;;5.90;;
51066;SDS011;37112;45.892;-123.962;2023-08-31T02:07:10;18.60;;;6.70;;
51066;SDS011;37112;45.892;-123.962;2023-08-31T02:09:23;23.60;;;6.70;;
51066;SDS011;37112;45.892;-123.962;2023-08-31T02:11:36;41.10;;;12.20;;
51066;SDS011;37112;45.892;-123.962;2023-08-31T02:13:51;41.70;;;12.70;;
51066;SDS011;37112;45.892;-123.962;2023-08-31T02:16:04;25.00;;;6.90;;
51066;SDS011;37112;45.892;-123.962;2023-08-31T02:18:17;33.60;;;9.80;;
51066;SDS011;37112;45.892;-123.962;2023-08-31T02:20:31;33.50;;;8.20;;
51066;SDS011;37112;45.892;-123.962;2023-08-31T02:22:44;34.90;;;9.00;;
51066;SDS011;37112;45.892;-123.962;2023-08-31T02:24:57;17.70;;;6.00;;
51066;SDS011;37112;45.892;-123.962;2023-08-31T02:27:11;32.10;;;8.00;;
51066;SDS011;37112;45.892;-123.962;2023-08-31T02:29:27;25.80;;;5.10;;
51066;SDS011;37112;45.892;-123.962;2023-08-31T02:31:42;42.50;;;10.80;;
51066;SDS011;37112;45.892;-123.962;2023-08-31T02:33:55;67.10;;;18.00;;
51066;SDS011;37112;45.892;-123.962;2023-08-31T02:36:08;69.50;;;16.80;;
51066;SDS011;37112;45.892;-123.962;2023-08-31T02:38:21;83.30;;;16.20;;
51066;SDS011;37112;45.892;-123.962;2023-08-31T02:40:34;87.50;;;16.00;;
51066;SDS011;37112;45.892;-123.962;2023-08-31T02:42:47;85.20;;;14.60;;
51066;SDS011;37112;45.892;-123.962;2023-08-31T02:45:03;59.50;;;12.90;;
51066;SDS011;37112;45.892;-123.962;2023-08-31T02:47:16;49.50;;;12.20;;
51066;SDS011;37112;45.892;-123.962;2023-08-31T02:49:29;26.20;;;5.60;;
51066;SDS011;37112;45.892;-123.962;2023-08-31T02:51:42;36.40;;;8.10;;
51066;SDS011;37112;45.892;-123.962;2023-08-31T02:54:02;31.20;;;7.00;;
51066;SDS011;37112;45.892;-123.962;2023-08-31T02:56:15;29.50;;;6.90;;
51066;SDS011;37112;45.892;-123.962;2023-08-31T02:58:29;29.40;;;6.60;;
51066;SDS011;37112;45.892;-123.962;2023-08-31T03:00:46;27.30;;;5.80;;
51066;SDS011;37112;45.892;-123.962;2023-08-31T03:03:00;14.50;;;4.70;;
51066;SDS011;37112;45.892;-123.962;2023-08-31T03:05:13;18.10;;;5.20;;
51066;SDS011;37112;45.892;-123.962;2023-08-31T03:07:26;16.40;;;5.00;;
51066;SDS011;37112;45.892;-123.962;2023-08-31T03:09:39;12.10;;;4.40;;
51066;SDS011;37112;45.892;-123.962;2023-08-31T03:11:54;13.30;;;4.50;;
51066;SDS011;37112;45.892;-123.962;2023-08-31T03:14:08;133.70;;;25.20;;
51066;SDS011;37112;45.892;-123.962;2023-08-31T03:16:20;165.00;;;31.60;;
51066;SDS011;37112;45.892;-123.962;2023-08-31T03:18:35;159.40;;;31.50;;
51066;SDS011;37112;45.892;-123.962;2023-08-31T03:20:48;154.40;;;29.30;;
51066;SDS011;37112;45.892;-123.962;2023-08-31T03:23:02;167.10;;;31.60;;
51066;SDS011;37112;45.892;-123.962;2023-08-31T03:25:17;152.70;;;29.80;;
51066;SDS011;37112;45.892;-123.962;2023-08-31T03:27:30;110.30;;;22.90;;
51066;SDS011;37112;45.892;-123.962;2023-08-31T03:29:44;51.40;;;12.20;;
51066;SDS011;37112;45.892;-123.962;2023-08-31T03:31:57;29.00;;;9.90;;
51066;SDS011;37112;45.892;-123.962;2023-08-31T03:34:12;25.80;;;8.80;;
51066;SDS011;37112;45.892;-123.962;2023-08-31T03:36:26;16.90;;;7.20;;
51066;SDS011;37112;45.892;-123.962;2023-08-31T03:38:40;18.90;;;8.10;;
51066;SDS011;37112;45.892;-123.962;2023-08-31T03:40:56;22.10;;;9.30;;
51066;SDS011;37112;45.892;-123.962;2023-08-31T03:43:09;16.10;;;8.50;;
51066;SDS011;37112;45.892;-123.962;2023-08-31T03:45:22;16.50;;;8.30;;
51066;SDS011;37112;45.892;-123.962;2023-08-31T03:47:34;14.10;;;7.20;;
51066;SDS011;37112;45.892;-123.962;2023-08-31T03:49:47;12.40;;;6.00;;
51066;SDS011;37112;45.892;-123.962;2023-08-31T03:52:00;11.30;;;5.60;;
51066;SDS011;37112;45.892;-123.962;2023-08-31T03:54:13;10.80;;;4.80;;
51066;SDS011;37112;45.892;-123.962;2023-08-31T03:56:26;8.20;;;4.50;;
51066;SDS011;37112;45.892;-123.962;2023-08-31T03:58:40;11.90;;;5.50;;
51066;SDS011;37112;45.892;-123.962;2023-08-31T04:00:54;7.90;;;3.90;;
51066;SDS011;37112;45.892;-123.962;2023-08-31T04:03:07;9.50;;;4.40;;
51066;SDS011;37112;45.892;-123.962;2023-08-31T04:05:21;8.30;;;4.40;;
51066;SDS011;37112;45.892;-123.962;2023-08-31T04:07:34;6.40;;;3.30;;
51066;SDS011;37112;45.892;-123.962;2023-08-31T04:09:47;4.30;;;2.90;;
51066;SDS011;37112;45.892;-123.962;2023-08-31T04:12:01;5.70;;;3.30;;
51066;SDS011;37112;45.892;-123.962;2023-08-31T04:14:17;5.40;;;3.30;;
51066;SDS011;37112;45.892;-123.962;2023-08-31T04:16:30;6.60;;;3.50;;
51066;SDS011;37112;45.892;-123.962;2023-08-31T04:18:42;6.70;;;3.50;;
51066;SDS011;37112;45.892;-123.962;2023-08-31T04:20:59;7.00;;;3.70;;
51066;SDS011;37112;45.892;-123.962;2023-08-31T04:23:12;9.00;;;4.00;;
51066;SDS011;37112;45.892;-123.962;2023-08-31T04:25:25;4.90;;;3.50;;
51066;SDS011;37112;45.892;-123.962;2023-08-31T04:27:41;6.00;;;3.40;;
51066;SDS011;37112;45.892;-123.962;2023-08-31T04:29:54;7.90;;;3.40;;
51066;SDS011;37112;45.892;-123.962;2023-08-31T04:32:07;7.80;;;3.10;;
51066;SDS011;37112;45.892;-123.962;2023-08-31T04:34:20;8.40;;;3.00;;
51066;SDS011;37112;45.892;-123.962;2023-08-31T04:36:33;8.70;;;3.10;;
51066;SDS011;37112;45.892;-123.962;2023-08-31T04:38:46;6.90;;;3.10;;
51066;SDS011;37112;45.892;-123.962;2023-08-31T04:41:00;5.70;;;3.10;;
51066;SDS011;37112;45.892;-123.962;2023-08-31T04:43:13;5.50;;;3.10;;
51066;SDS011;37112;45.892;-123.962;2023-08-31T04:45:26;5.60;;;3.50;;
51066;SDS011;37112;45.892;-123.962;2023-08-31T04:47:40;9.40;;;4.80;;
51066;SDS011;37112;45.892;-123.962;2023-08-31T04:49:53;7.70;;;3.80;;
51066;SDS011;37112;45.892;-123.962;2023-08-31T04:52:07;6.40;;;3.10;;
51066;SDS011;37112;45.892;-123.962;2023-08-31T04:54:20;7.10;;;3.60;;
51066;SDS011;37112;45.892;-123.962;2023-08-31T04:56:34;6.70;;;3.50;;
51066;SDS011;37112;45.892;-123.962;2023-08-31T04:58:48;9.80;;;4.00;;
51066;SDS011;37112;45.892;-123.962;2023-08-31T05:01:01;8.70;;;3.50;;
51066;SDS011;37112;45.892;-123.962;2023-08-31T05:03:15;7.40;;;3.00;;
51066;SDS011;37112;45.892;-123.962;2023-08-31T05:05:29;7.30;;;3.70;;
51066;SDS011;37112;45.892;-123.962;2023-08-31T05:07:43;6.00;;;3.50;;
51066;SDS011;37112;45.892;-123.962;2023-08-31T05:09:56;9.80;;;4.10;;
51066;SDS011;37112;45.892;-123.962;2023-08-31T05:12:10;9.50;;;4.40;;
51066;SDS011;37112;45.892;-123.962;2023-08-31T05:14:25;10.90;;;4.40;;
51066;SDS011;37112;45.892;-123.962;2023-08-31T05:16:38;9.20;;;4.20;;
51066;SDS011;37112;45.892;-123.962;2023-08-31T05:18:51;15.70;;;5.00;;
51066;SDS011;37112;45.892;-123.962;2023-08-31T05:21:05;11.90;;;5.00;;
51066;SDS011;37112;45.892;-123.962;2023-08-31T05:23:19;10.50;;;4.60;;
51066;SDS011;37112;45.892;-123.962;2023-08-31T05:25:32;12.70;;;5.00;;
51066;SDS011;37112;45.892;-123.962;2023-08-31T05:27:45;12.50;;;5.20;;
51066;SDS011;37112;45.892;-123.962;2023-08-31T05:29:59;17.90;;;6.60;;
51066;SDS011;37112;45.892;-123.962;2023-08-31T05:32:13;15.30;;;5.10;;
51066;SDS011;37112;45.892;-123.962;2023-08-31T05:34:26;12.30;;;4.80;;
51066;SDS011;37112;45.892;-123.962;2023-08-31T05:36:43;9.40;;;4.30;;
51066;SDS011;37112;45.892;-123.962;2023-08-31T05:38:58;10.60;;;4.00;;
51066;SDS011;37112;45.892;-123.962;2023-08-31T05:41:12;8.20;;;4.70;;
51066;SDS011;37112;45.892;-123.962;2023-08-31T05:43:24;10.10;;;4.50;;
51066;SDS011;37112;45.892;-123.962;2023-08-31T05:45:38;11.30;;;5.20;;
51066;SDS011;37112;45.892;-123.962;2023-08-31T05:47:52;9.90;;;3.90;;
51066;SDS011;37112;45.892;-123.962;2023-08-31T05:50:06;12.20;;;4.50;;
51066;SDS011;37112;45.892;-123.962;2023-08-31T05:52:21;11.30;;;4.90;;
51066;SDS011;37112;45.892;-123.962;2023-08-31T05:54:35;9.30;;;6.00;;
51066;SDS011;37112;45.892;-123.962;2023-08-31T05:56:48;8.30;;;4.60;;
51066;SDS011;37112;45.892;-123.962;2023-08-31T05:59:01;10.40;;;5.30;;
51066;SDS011;37112;45.892;-123.962;2023-08-31T06:01:14;8.00;;;4.30;;
51066;SDS011;37112;45.892;-123.962;2023-08-31T06:03:27;8.00;;;4.30;;
51066;SDS011;37112;45.892;-123.962;2023-08-31T06:05:42;7.30;;;4.20;;
51066;SDS011;37112;45.892;-123.962;2023-08-31T06:07:55;7.80;;;4.30;;
51066;SDS011;37112;45.892;-123.962;2023-08-31T06:10:10;7.20;;;4.50;;
51066;SDS011;37112;45.892;-123.962;2023-08-31T06:12:23;8.10;;;4.30;;
51066;SDS011;37112;45.892;-123.962;2023-08-31T06:14:36;7.40;;;3.40;;
51066;SDS011;37112;45.892;-123.962;2023-08-31T06:16:49;5.40;;;3.40;;
51066;SDS011;37112;45.892;-123.962;2023-08-31T06:19:02;6.80;;;3.90;;
51066;SDS011;37112;45.892;-123.962;2023-08-31T06:21:15;5.50;;;2.70;;
51066;SDS011;37112;45.892;-123.962;2023-08-31T06:23:28;5.80;;;3.10;;
51066;SDS011;37112;45.892;-123.962;2023-08-31T06:25:41;4.60;;;2.90;;
51066;SDS011;37112;45.892;-123.962;2023-08-31T06:27:55;6.20;;;3.10;;
51066;SDS011;37112;45.892;-123.962;2023-08-31T06:30:09;6.20;;;3.00;;
51066;SDS011;37112;45.892;-123.962;2023-08-31T06:32:23;7.50;;;3.00;;
51066;SDS011;37112;45.892;-123.962;2023-08-31T06:34:37;5.40;;;3.10;;
51066;SDS011;37112;45.892;-123.962;2023-08-31T06:36:50;7.90;;;2.90;;
51066;SDS011;37112;45.892;-123.962;2023-08-31T06:39:05;4.00;;;2.60;;
51066;SDS011;37112;45.892;-123.962;2023-08-31T06:41:18;5.20;;;2.70;;
51066;SDS011;37112;45.892;-123.962;2023-08-31T06:43:31;4.90;;;2.80;;
51066;SDS011;37112;45.892;-123.962;2023-08-31T06:45:45;8.50;;;3.80;;
51066;SDS011;37112;45.892;-123.962;2023-08-31T06:47:58;6.90;;;2.70;;
51066;SDS011;37112;45.892;-123.962;2023-08-31T06:50:12;8.20;;;3.50;;
51066;SDS011;37112;45.892;-123.962;2023-08-31T06:52:25;7.20;;;3.70;;
51066;SDS011;37112;45.892;-123.962;2023-08-31T06:54:39;7.90;;;3.20;;
51066;SDS011;37112;45.892;-123.962;2023-08-31T06:56:52;6.60;;;3.40;;
51066;SDS011;37112;45.892;-123.962;2023-08-31T06:59:05;6.90;;;3.40;;
51066;SDS011;37112;45.892;-123.962;2023-08-31T07:01:19;6.40;;;3.30;;
51066;SDS011;37112;45.892;-123.962;2023-08-31T07:03:32;5.20;;;3.10;;
51066;SDS011;37112;45.892;-123.962;2023-08-31T07:05:46;6.10;;;3.60;;
51066;SDS011;37112;45.892;-123.962;2023-08-31T07:07:59;4.70;;;3.10;;
51066;SDS011;37112;45.892;-123.962;2023-08-31T07:10:13;6.80;;;3.20;;
51066;SDS011;37112;45.892;-123.962;2023-08-31T07:12:26;7.70;;;3.90;;
51066;SDS011;37112;45.892;-123.962;2023-08-31T07:14:39;5.60;;;2.80;;
51066;SDS011;37112;45.892;-123.962;2023-08-31T07:16:52;5.70;;;3.50;;
51066;SDS011;37112;45.892;-123.962;2023-08-31T07:19:05;5.70;;;2.70;;
51066;SDS011;37112;45.892;-123.962;2023-08-31T07:21:18;5.20;;;3.10;;
51066;SDS011;37112;45.892;-123.962;2023-08-31T07:23:32;6.80;;;3.00;;
51066;SDS011;37112;45.892;-123.962;2023-08-31T07:25:46;5.30;;;3.10;;
51066;SDS011;37112;45.892;-123.962;2023-08-31T07:27:59;4.60;;;3.00;;
51066;SDS011;37112;45.892;-123.962;2023-08-31T07:30:13;6.60;;;3.20;;
51066;SDS011;37112;45.892;-123.962;2023-08-31T07:32:26;7.20;;;3.50;;
51066;SDS011;37112;45.892;-123.962;2023-08-31T07:34:39;7.50;;;3.40;;
51066;SDS011;37112;45.892;-123.962;2023-08-31T07:36:52;7.60;;;3.10;;
51066;SDS011;37112;45.892;-123.962;2023-08-31T07:39:06;5.80;;;3.50;;
51066;SDS011;37112;45.892;-123.962;2023-08-31T07:41:19;8.40;;;3.60;;
51066;SDS011;37112;45.892;-123.962;2023-08-31T07:43:32;8.10;;;3.30;;
51066;SDS011;37112;45.892;-123.962;2023-08-31T07:46:00;7.40;;;3.30;;
51066;SDS011;37112;45.892;-123.962;2023-08-31T07:48:14;5.90;;;3.50;;
51066;SDS011;37112;45.892;-123.962;2023-08-31T07:50:27;7.90;;;3.50;;
51066;SDS011;37112;45.892;-123.962;2023-08-31T07:52:41;8.30;;;3.20;;
51066;SDS011;37112;45.892;-123.962;2023-08-31T07:54:54;8.50;;;3.80;;
51066;SDS011;37112;45.892;-123.962;2023-08-31T07:57:08;5.00;;;3.20;;
51066;SDS011;37112;45.892;-123.962;2023-08-31T07:59:21;7.30;;;3.10;;
51066;SDS011;37112;45.892;-123.962;2023-08-31T08:01:35;6.10;;;3.50;;
51066;SDS011;37112;45.892;-123.962;2023-08-31T08:03:48;4.60;;;3.00;;
51066;SDS011;37112;45.892;-123.962;2023-08-31T08:06:02;7.70;;;3.10;;
51066;SDS011;37112;45.892;-123.962;2023-08-31T08:08:15;7.00;;;2.90;;
51066;SDS011;37112;45.892;-123.962;2023-08-31T08:10:29;7.20;;;2.40;;
51066;SDS011;37112;45.892;-123.962;2023-08-31T08:12:42;5.50;;;2.70;;
51066;SDS011;37112;45.892;-123.962;2023-08-31T08:14:56;6.90;;;3.30;;
51066;SDS011;37112;45.892;-123.962;2023-08-31T08:17:08;5.00;;;2.70;;
51066;SDS011;37112;45.892;-123.962;2023-08-31T08:19:24;5.20;;;2.90;;
51066;SDS011;37112;45.892;-123.962;2023-08-31T08:21:37;4.20;;;3.10;;
51066;SDS011;37112;45.892;-123.962;2023-08-31T08:23:50;5.80;;;3.30;;
51066;SDS011;37112;45.892;-123.962;2023-08-31T08:26:03;4.40;;;2.70;;
51066;SDS011;37112;45.892;-123.962;2023-08-31T08:28:17;4.80;;;3.20;;
51066;SDS011;37112;45.892;-123.962;2023-08-31T08:30:30;6.10;;;3.10;;
51066;SDS011;37112;45.892;-123.962;2023-08-31T08:32:43;5.60;;;3.00;;
51066;SDS011;37112;45.892;-123.962;2023-08-31T08:34:56;6.00;;;3.40;;
51066;SDS011;37112;45.892;-123.962;2023-08-31T08:37:09;5.90;;;3.10;;
51066;SDS011;37112;45.892;-123.962;2023-08-31T08:39:22;5.40;;;3.10;;
51066;SDS011;37112;45.892;-123.962;2023-08-31T08:41:36;5.60;;;3.00;;
51066;SDS011;37112;45.892;-123.962;2023-08-31T08:43:50;9.90;;;3.20;;
51066;SDS011;37112;45.892;-123.962;2023-08-31T08:46:06;7.50;;;3.10;;
51066;SDS011;37112;45.892;-123.962;2023-08-31T08:48:20;7.10;;;2.60;;
51066;SDS011;37112;45.892;-123.962;2023-08-31T08:50:33;5.10;;;3.00;;
51066;SDS011;37112;45.892;-123.962;2023-08-31T08:52:47;6.10;;;3.20;;
51066;SDS011;37112;45.892;-123.962;2023-08-31T08:55:01;6.20;;;2.80;;
51066;SDS011;37112;45.892;-123.962;2023-08-31T08:57:16;5.40;;;3.30;;
51066;SDS011;37112;45.892;-123.962;2023-08-31T08:59:29;4.20;;;2.60;;
51066;SDS011;37112;45.892;-123.962;2023-08-31T09:01:42;6.50;;;2.90;;
51066;SDS011;37112;45.892;-123.962;2023-08-31T09:03:56;7.80;;;3.20;;
51066;SDS011;37112;45.892;-123.962;2023-08-31T09:06:10;5.30;;;2.70;;
51066;SDS011;37112;45.892;-123.962;2023-08-31T09:08:27;5.70;;;2.90;;
51066;SDS011;37112;45.892;-123.962;2023-08-31T09:10:40;3.60;;;2.60;;
51066;SDS011;37112;45.892;-123.962;2023-08-31T09:12:54;6.70;;;2.80;;
51066;SDS011;37112;45.892;-123.962;2023-08-31T09:15:10;6.60;;;2.90;;
51066;SDS011;37112;45.892;-123.962;2023-08-31T09:17:25;8.30;;;2.70;;
51066;SDS011;37112;45.892;-123.962;2023-08-31T09:19:47;5.60;;;2.90;;
51066;SDS011;37112;45.892;-123.962;2023-08-31T09:22:13;5.10;;;2.80;;
51066;SDS011;37112;45.892;-123.962;2023-08-31T09:24:41;5.80;;;2.70;;
51066;SDS011;37112;45.892;-123.962;2023-08-31T09:26:57;5.40;;;2.80;;
51066;SDS011;37112;45.892;-123.962;2023-08-31T09:29:11;3.40;;;2.70;;
51066;SDS011;37112;45.892;-123.962;2023-08-31T09:31:27;4.80;;;2.80;;
51066;SDS011;37112;45.892;-123.962;2023-08-31T09:33:48;5.00;;;2.80;;
51066;SDS011;37112;45.892;-123.962;2023-08-31T09:36:03;7.60;;;3.50;;
51066;SDS011;37112;45.892;-123.962;2023-08-31T09:38:19;4.60;;;2.70;;
51066;SDS011;37112;45.892;-123.962;2023-08-31T09:40:33;6.20;;;3.20;;
51066;SDS011;37112;45.892;-123.962;2023-08-31T09:42:51;5.90;;;3.20;;
51066;SDS011;37112;45.892;-123.962;2023-08-31T09:45:07;4.90;;;2.60;;
51066;SDS011;37112;45.892;-123.962;2023-08-31T09:47:21;5.00;;;2.40;;
51066;SDS011;37112;45.892;-123.962;2023-08-31T09:49:35;4.70;;;2.60;;
51066;SDS011;37112;45.892;-123.962;2023-08-31T09:51:52;8.00;;;3.00;;
51066;SDS011;37112;45.892;-123.962;2023-08-31T09:54:08;6.50;;;2.90;;
51066;SDS011;37112;45.892;-123.962;2023-08-31T09:56:23;5.70;;;3.50;;
51066;SDS011;37112;45.892;-123.962;2023-08-31T09:58:43;6.00;;;3.30;;
51066;SDS011;37112;45.892;-123.962;2023-08-31T10:00:57;6.60;;;3.00;;
51066;SDS011;37112;45.892;-123.962;2023-08-31T10:03:30;5.10;;;3.20;;
51066;SDS011;37112;45.892;-123.962;2023-08-31T10:05:45;6.30;;;2.90;;
51066;SDS011;37112;45.892;-123.962;2023-08-31T10:08:00;5.20;;;3.00;;
51066;SDS011;37112;45.892;-123.962;2023-08-31T10:10:15;4.80;;;2.60;;
51066;SDS011;37112;45.892;-123.962;2023-08-31T10:12:30;6.50;;;2.70;;
51066;SDS011;37112;45.892;-123.962;2023-08-31T10:14:45;4.20;;;3.00;;
51066;SDS011;37112;45.892;-123.962;2023-08-31T10:17:01;4.40;;;2.70;;
51066;SDS011;37112;45.892;-123.962;2023-08-31T10:19:15;6.80;;;3.20;;
51066;SDS011;37112;45.892;-123.962;2023-08-31T10:21:29;5.30;;;2.50;;
51066;SDS011;37112;45.892;-123.962;2023-08-31T10:23:46;4.90;;;2.90;;
51066;SDS011;37112;45.892;-123.962;2023-08-31T10:26:06;4.40;;;2.90;;
51066;SDS011;37112;45.892;-123.962;2023-08-31T10:28:20;6.30;;;2.60;;
51066;SDS011;37112;45.892;-123.962;2023-08-31T10:30:36;4.80;;;2.70;;
51066;SDS011;37112;45.892;-123.962;2023-08-31T10:32:59;3.60;;;2.60;;
51066;SDS011;37112;45.892;-123.962;2023-08-31T10:35:27;5.30;;;2.50;;
51066;SDS011;37112;45.892;-123.962;2023-08-31T10:40:30;4.90;;;2.60;;
51066;SDS011;37112;45.892;-123.962;2023-08-31T10:42:48;4.70;;;3.20;;
51066;SDS011;37112;45.892;-123.962;2023-08-31T10:45:41;6.30;;;2.80;;
51066;SDS011;37112;45.892;-123.962;2023-08-31T10:47:57;6.50;;;3.00;;
51066;SDS011;37112;45.892;-123.962;2023-08-31T10:50:18;4.30;;;2.60;;
51066;SDS011;37112;45.892;-123.962;2023-08-31T10:52:33;5.30;;;2.40;;
51066;SDS011;37112;45.892;-123.962;2023-08-31T10:54:56;5.30;;;2.80;;
51066;SDS011;37112;45.892;-123.962;2023-08-31T10:57:15;4.70;;;2.90;;
51066;SDS011;37112;45.892;-123.962;2023-08-31T10:59:43;7.80;;;3.20;;
51066;SDS011;37112;45.892;-123.962;2023-08-31T11:01:59;4.50;;;2.90;;
51066;SDS011;37112;45.892;-123.962;2023-08-31T11:04:13;4.00;;;2.60;;
51066;SDS011;37112;45.892;-123.962;2023-08-31T11:06:27;6.40;;;2.90;;
51066;SDS011;37112;45.892;-123.962;2023-08-31T11:08:41;6.10;;;2.70;;
51066;SDS011;37112;45.892;-123.962;2023-08-31T11:10:55;5.10;;;3.20;;
51066;SDS011;37112;45.892;-123.962;2023-08-31T11:13:10;5.80;;;2.90;;
51066;SDS011;37112;45.892;-123.962;2023-08-31T11:15:29;4.80;;;3.00;;
51066;SDS011;37112;45.892;-123.962;2023-08-31T11:17:43;5.50;;;2.50;;
51066;SDS011;37112;45.892;-123.962;2023-08-31T11:19:59;5.20;;;2.50;;
51066;SDS011;37112;45.892;-123.962;2023-08-31T11:22:14;4.80;;;3.20;;
51066;SDS011;37112;45.892;-123.962;2023-08-31T11:24:29;5.50;;;3.00;;
51066;SDS011;37112;45.892;-123.962;2023-08-31T11:26:43;4.00;;;2.70;;
51066;SDS011;37112;45.892;-123.962;2023-08-31T11:28:58;5.60;;;2.50;;
51066;SDS011;37112;45.892;-123.962;2023-08-31T11:31:16;6.00;;;2.60;;
51066;SDS011;37112;45.892;-123.962;2023-08-31T11:33:36;5.10;;;2.80;;
51066;SDS011;37112;45.892;-123.962;2023-08-31T11:35:51;6.50;;;3.30;;
51066;SDS011;37112;45.892;-123.962;2023-08-31T11:38:05;5.10;;;2.30;;
51066;SDS011;37112;45.892;-123.962;2023-08-31T11:40:19;5.30;;;3.20;;
51066;SDS011;37112;45.892;-123.962;2023-08-31T11:42:33;4.40;;;2.50;;
51066;SDS011;37112;45.892;-123.962;2023-08-31T11:44:47;6.40;;;2.40;;
51066;SDS011;37112;45.892;-123.962;2023-08-31T11:47:04;3.40;;;2.30;;
51066;SDS011;37112;45.892;-123.962;2023-08-31T11:49:18;6.60;;;2.80;;
51066;SDS011;37112;45.892;-123.962;2023-08-31T11:51:33;4.60;;;2.50;;
51066;SDS011;37112;45.892;-123.962;2023-08-31T11:53:49;4.90;;;2.80;;
51066;SDS011;37112;45.892;-123.962;2023-08-31T11:56:04;4.40;;;2.50;;
51066;SDS011;37112;45.892;-123.962;2023-08-31T11:58:18;7.00;;;2.50;;
51066;SDS011;37112;45.892;-123.962;2023-08-31T12:00:32;4.30;;;2.80;;
51066;SDS011;37112;45.892;-123.962;2023-08-31T12:02:46;4.50;;;2.50;;
51066;SDS011;37112;45.892;-123.962;2023-08-31T12:05:10;3.20;;;2.30;;
51066;SDS011;37112;45.892;-123.962;2023-08-31T12:07:24;4.40;;;2.40;;
51066;SDS011;37112;45.892;-123.962;2023-08-31T12:09:38;6.00;;;3.00;;
51066;SDS011;37112;45.892;-123.962;2023-08-31T12:11:52;5.40;;;2.80;;
51066;SDS011;37112;45.892;-123.962;2023-08-31T12:14:19;5.70;;;2.50;;
51066;SDS011;37112;45.892;-123.962;2023-08-31T12:16:35;7.60;;;2.90;;
51066;SDS011;37112;45.892;-123.962;2023-08-31T12:18:49;5.50;;;2.40;;
51066;SDS011;37112;45.892;-123.962;2023-08-31T12:21:03;6.60;;;2.90;;
51066;SDS011;37112;45.892;-123.962;2023-08-31T12:23:17;3.90;;;2.30;;
51066;SDS011;37112;45.892;-123.962;2023-08-31T12:25:31;4.70;;;2.40;;
51066;SDS011;37112;45.892;-123.962;2023-08-31T12:27:46;6.00;;;3.10;;
51066;SDS011;37112;45.892;-123.962;2023-08-31T12:30:00;4.40;;;2.50;;
51066;SDS011;37112;45.892;-123.962;2023-08-31T12:32:14;4.50;;;2.60;;
51066;SDS011;37112;45.892;-123.962;2023-08-31T12:34:28;4.00;;;2.50;;
51066;SDS011;37112;45.892;-123.962;2023-08-31T12:36:43;6.00;;;3.10;;
51066;SDS011;37112;45.892;-123.962;2023-08-31T12:38:56;4.00;;;2.80;;
51066;SDS011;37112;45.892;-123.962;2023-08-31T12:41:16;4.50;;;2.40;;
51066;SDS011;37112;45.892;-123.962;2023-08-31T12:43:31;7.60;;;4.60;;
51066;SDS011;37112;45.892;-123.962;2023-08-31T12:45:45;4.90;;;2.60;;
51066;SDS011;37112;45.892;-123.962;2023-08-31T12:47:59;3.50;;;2.40;;
51066;SDS011;37112;45.892;-123.962;2023-08-31T12:50:14;5.80;;;2.60;;
51066;SDS011;37112;45.892;-123.962;2023-08-31T12:52:28;5.80;;;3.00;;
51066;SDS011;37112;45.892;-123.962;2023-08-31T12:54:43;4.00;;;3.00;;